KPVE Weather Reports


Display with metric or nautical units.
time (UTC)temp
F
wind
direction
speed
MPH
gust
MPH
rain 1hr
in
rain 24hr
in
rain mn
in
humidity
%
barometer
mb
20191022162543 61 0 7.0 17.0 0.00 0.00 0.00 5
20191022160543 61 260 12.0 0.0 0.00 0.00 0.00 5
20191022154542 59 250 14.0 21.0 0.00 0.00 0.00 5
20191022152548 59 240 10.0 0.0 0.00 0.00 0.00 5
20191022150554 59 240 13.0 0.0 0.00 0.00 0.00 5
20191022144548 57 260 10.0 0.0 0.00 0.00 0.00 6
20191022142542 55 250 7.0 0.0 0.00 0.00 0.00 6
20191022140552 54 240 6.0 0.0 0.00 0.00 0.00 7
20191022134548 52 250 5.0 0.0 0.00 0.00 0.00 8
20191022132546 50 240 6.0 0.0 0.00 0.00 0.00 8
20191022130534 48 0 0.0 0.0 0.00 0.00 0.00 8
20191022124544 46 0 0.0 0.0 0.00 0.00 0.00 9
20191022122539 46 0 0.0 0.0 0.00 0.00 0.00 9
20191022120548 46 0 0.0 0.0 0.00 0.00 0.00 9
20191022114539 46 220 3.0 0.0 0.00 0.00 0.00 9
20191022112548 48 210 6.0 0.0 0.00 0.00 0.00 8
20191022110559 48 210 5.0 0.0 0.00 0.00 0.00 9
20191022104538 50 0 0.0 0.0 0.00 0.00 0.00 9
20191022102541 50 0 0.0 0.0 0.00 0.00 0.00 9
20191022100558 50 200 3.0 0.0 0.00 0.00 0.00 9
20191022094545 50 0 0.0 0.0 0.00 0.00 0.00 10
20191022090543 52 230 3.0 0.0 0.00 0.00 0.00 10
20191022084551 52 0 0.0 0.0 0.00 0.00 0.00 10
20191022082549 52 200 5.0 0.0 0.00 0.00 0.00 10
20191022080543 54 0 0.0 0.0 0.00 0.00 0.00 9
20191022074541 54 0 0.0 0.0 0.00 0.00 0.00 10
20191022072602 54 0 0.0 0.0 0.00 0.00 0.00 10
20191022070540 57 240 5.0 0.0 0.00 0.00 0.00 8
20191022064602 57 240 6.0 0.0 0.00 0.00 0.00 8
20191022062545 57 250 6.0 0.0 0.00 0.00 0.00 9
20191022060644 59 260 6.0 0.0 0.00 0.00 0.00 8
20191022054540 59 240 5.0 0.0 0.00 0.00 0.00 9
20191022052541 59 240 7.0 0.0 0.00 0.00 0.00 9
20191022050557 61 250 7.0 0.0 0.00 0.00 0.00 8
20191022044539 61 250 7.0 13.0 0.00 0.00 0.00 9
20191022042548 61 230 8.0 0.0 0.00 0.00 0.00 9
20191022040540 61 240 8.0 0.0 0.00 0.00 0.00 9
20191022034551 61 220 8.0 0.0 0.00 0.00 0.00 9
20191022032541 61 230 8.0 14.0 0.00 0.00 0.00 9
20191022030554 61 220 10.0 0.0 0.00 0.00 0.00 9
20191022024554 61 190 6.0 0.0 0.00 0.00 0.00 9
20191022022549 61 200 5.0 0.0 0.00 0.00 0.00 9
20191022020548 61 180 6.0 0.0 0.00 0.00 0.00 9
20191022014557 61 180 5.0 0.0 0.00 0.00 0.00 10
20191022012548 61 190 6.0 0.0 0.00 0.00 0.00 9
20191022010552 61 190 3.0 0.0 0.00 0.00 0.00 9
20191022004545 63 0 5.0 0.0 0.00 0.00 0.00 9
20191022002546 63 190 5.0 0.0 0.00 0.00 0.00 9
20191022000537 63 200 7.0 0.0 0.00 0.00 0.00 9
20191021234540 63 210 9.0 0.0 0.00 0.00 0.00 9
20191021232555 63 200 10.0 16.0 0.00 0.00 0.00 9
20191021230552 63 180 8.0 14.0 0.00 0.00 0.00 9
20191021222540 63 200 10.0 0.0 0.00 0.00 0.00 9
20191021220546 64 200 10.0 0.0 0.00 0.00 0.00 8
20191021214542 64 190 8.0 15.0 0.00 0.00 0.00 8
20191021212537 64 200 14.0 0.0 0.00 0.00 0.00 8
20191021210543 64 170 10.0 0.0 0.00 0.00 0.00 8
20191021204551 64 180 13.0 0.0 0.00 0.00 0.00 9
20191021202550 64 190 9.0 18.0 0.00 0.00 0.00 8
20191021200535 64 180 12.0 17.0 0.00 0.00 0.00 8
20191021194538 64 170 8.0 16.0 0.00 0.00 0.00 9
20191021192540 64 160 12.0 17.0 0.00 0.00 0.00 9
20191021190555 64 170 12.0 0.0 0.00 0.00 0.00 9
20191021184547 64 150 6.0 13.0 0.00 0.00 0.00 9
20191021182553 64 160 8.0 0.0 0.00 0.00 0.00 9
20191021180554 64 180 8.0 0.0 0.00 0.00 0.00 9
20191021174542 64 160 9.0 0.0 0.00 0.00 0.00 9
20191021172539 66 170 8.0 18.0 0.00 0.00 0.00 8
20191021164544 66 180 10.0 16.0 0.00 0.00 0.00 8